sensor_id;sensor_type;location;lat;lon;timestamp;P1;durP1;ratioP1;P2;durP2;ratioP2
12412;SDS011;13877;18.896;-99.222;2022-10-19T00:02:06;30.27;;;19.23;;
12412;SDS011;13877;18.896;-99.222;2022-10-19T00:04:33;34.33;;;18.15;;
12412;SDS011;13877;18.896;-99.222;2022-10-19T00:07:00;35.45;;;20.20;;
12412;SDS011;13877;18.896;-99.222;2022-10-19T00:09:27;37.17;;;20.52;;
12412;SDS011;13877;18.896;-99.222;2022-10-19T00:11:54;43.58;;;20.20;;
12412;SDS011;13877;18.896;-99.222;2022-10-19T00:14:21;38.08;;;16.90;;
12412;SDS011;13877;18.896;-99.222;2022-10-19T00:16:50;41.20;;;18.73;;
12412;SDS011;13877;18.896;-99.222;2022-10-19T00:19:20;36.28;;;18.45;;
12412;SDS011;13877;18.896;-99.222;2022-10-19T00:21:48;41.90;;;17.90;;
12412;SDS011;13877;18.896;-99.222;2022-10-19T00:24:15;35.63;;;19.23;;
12412;SDS011;13877;18.896;-99.222;2022-10-19T00:26:42;33.28;;;18.70;;
12412;SDS011;13877;18.896;-99.222;2022-10-19T00:29:10;37.45;;;19.70;;
12412;SDS011;13877;18.896;-99.222;2022-10-19T00:31:39;35.90;;;21.13;;
12412;SDS011;13877;18.896;-99.222;2022-10-19T00:34:06;52.10;;;28.67;;
12412;SDS011;13877;18.896;-99.222;2022-10-19T00:36:34;39.55;;;22.33;;
12412;SDS011;13877;18.896;-99.222;2022-10-19T00:39:03;54.03;;;27.05;;
12412;SDS011;13877;18.896;-99.222;2022-10-19T00:41:32;56.85;;;31.70;;
12412;SDS011;13877;18.896;-99.222;2022-10-19T00:46:53;53.30;;;30.63;;
12412;SDS011;13877;18.896;-99.222;2022-10-19T00:49:26;60.55;;;30.52;;
12412;SDS011;13877;18.896;-99.222;2022-10-19T00:51:58;53.40;;;31.20;;
12412;SDS011;13877;18.896;-99.222;2022-10-19T00:54:53;57.70;;;32.35;;
12412;SDS011;13877;18.896;-99.222;2022-10-19T00:57:24;61.40;;;33.40;;
12412;SDS011;13877;18.896;-99.222;2022-10-19T00:59:54;64.82;;;34.35;;
12412;SDS011;13877;18.896;-99.222;2022-10-19T01:02:22;65.38;;;35.67;;
12412;SDS011;13877;18.896;-99.222;2022-10-19T01:04:49;59.75;;;32.72;;
12412;SDS011;13877;18.896;-99.222;2022-10-19T01:07:17;61.22;;;33.72;;
12412;SDS011;13877;18.896;-99.222;2022-10-19T01:09:45;63.05;;;33.10;;
12412;SDS011;13877;18.896;-99.222;2022-10-19T01:14:52;63.92;;;32.95;;
12412;SDS011;13877;18.896;-99.222;2022-10-19T01:25:34;55.40;;;30.03;;
12412;SDS011;13877;18.896;-99.222;2022-10-19T01:31:41;60.92;;;32.05;;
12412;SDS011;13877;18.896;-99.222;2022-10-19T01:37:18;49.47;;;27.73;;
12412;SDS011;13877;18.896;-99.222;2022-10-19T01:42:30;57.05;;;27.23;;
12412;SDS011;13877;18.896;-99.222;2022-10-19T01:52:42;46.60;;;25.60;;
12412;SDS011;13877;18.896;-99.222;2022-10-19T01:55:10;44.85;;;25.13;;
12412;SDS011;13877;18.896;-99.222;2022-10-19T01:57:41;51.28;;;24.38;;
12412;SDS011;13877;18.896;-99.222;2022-10-19T02:00:12;40.45;;;22.17;;
12412;SDS011;13877;18.896;-99.222;2022-10-19T02:02:44;37.70;;;21.38;;
12412;SDS011;13877;18.896;-99.222;2022-10-19T02:05:12;39.00;;;21.20;;
12412;SDS011;13877;18.896;-99.222;2022-10-19T02:07:42;41.65;;;22.58;;
12412;SDS011;13877;18.896;-99.222;2022-10-19T02:10:13;37.90;;;19.85;;
12412;SDS011;13877;18.896;-99.222;2022-10-19T02:12:40;37.50;;;20.40;;
12412;SDS011;13877;18.896;-99.222;2022-10-19T02:15:09;26.13;;;16.67;;
12412;SDS011;13877;18.896;-99.222;2022-10-19T02:17:41;35.15;;;19.38;;
12412;SDS011;13877;18.896;-99.222;2022-10-19T02:20:12;36.10;;;19.40;;
12412;SDS011;13877;18.896;-99.222;2022-10-19T02:22:40;26.58;;;17.00;;
12412;SDS011;13877;18.896;-99.222;2022-10-19T02:25:07;29.50;;;16.85;;
12412;SDS011;13877;18.896;-99.222;2022-10-19T02:27:35;27.65;;;16.90;;
12412;SDS011;13877;18.896;-99.222;2022-10-19T02:30:12;35.00;;;19.80;;
12412;SDS011;13877;18.896;-99.222;2022-10-19T02:32:42;36.92;;;19.27;;
12412;SDS011;13877;18.896;-99.222;2022-10-19T02:35:09;31.98;;;19.40;;
12412;SDS011;13877;18.896;-99.222;2022-10-19T02:37:39;33.33;;;19.88;;
12412;SDS011;13877;18.896;-99.222;2022-10-19T02:40:06;31.75;;;18.63;;
12412;SDS011;13877;18.896;-99.222;2022-10-19T02:42:41;42.00;;;21.70;;
12412;SDS011;13877;18.896;-99.222;2022-10-19T02:48:05;43.13;;;23.48;;
12412;SDS011;13877;18.896;-99.222;2022-10-19T02:50:36;42.55;;;22.75;;
12412;SDS011;13877;18.896;-99.222;2022-10-19T02:53:03;46.17;;;25.65;;
12412;SDS011;13877;18.896;-99.222;2022-10-19T02:55:30;55.10;;;27.27;;
12412;SDS011;13877;18.896;-99.222;2022-10-19T02:57:57;50.08;;;26.80;;
12412;SDS011;13877;18.896;-99.222;2022-10-19T03:00:24;51.15;;;26.63;;
12412;SDS011;13877;18.896;-99.222;2022-10-19T03:02:51;50.58;;;26.55;;
12412;SDS011;13877;18.896;-99.222;2022-10-19T03:05:18;60.40;;;29.15;;
12412;SDS011;13877;18.896;-99.222;2022-10-19T03:07:45;59.75;;;29.08;;
12412;SDS011;13877;18.896;-99.222;2022-10-19T03:10:12;65.25;;;30.35;;
12412;SDS011;13877;18.896;-99.222;2022-10-19T03:12:39;70.80;;;32.63;;
12412;SDS011;13877;18.896;-99.222;2022-10-19T03:15:06;71.18;;;32.13;;
12412;SDS011;13877;18.896;-99.222;2022-10-19T03:17:33;64.43;;;33.03;;
12412;SDS011;13877;18.896;-99.222;2022-10-19T03:20:00;83.00;;;37.35;;
12412;SDS011;13877;18.896;-99.222;2022-10-19T03:22:27;84.55;;;39.40;;
12412;SDS011;13877;18.896;-99.222;2022-10-19T03:24:54;81.43;;;39.70;;
12412;SDS011;13877;18.896;-99.222;2022-10-19T03:27:21;93.00;;;41.20;;
12412;SDS011;13877;18.896;-99.222;2022-10-19T03:29:48;97.88;;;43.78;;
12412;SDS011;13877;18.896;-99.222;2022-10-19T03:32:15;99.38;;;43.83;;
12412;SDS011;13877;18.896;-99.222;2022-10-19T03:34:42;125.45;;;47.22;;
12412;SDS011;13877;18.896;-99.222;2022-10-19T03:37:08;100.20;;;44.63;;
12412;SDS011;13877;18.896;-99.222;2022-10-19T03:39:38;102.10;;;44.70;;
12412;SDS011;13877;18.896;-99.222;2022-10-19T03:42:04;97.65;;;44.28;;
12412;SDS011;13877;18.896;-99.222;2022-10-19T03:44:32;87.50;;;41.67;;
12412;SDS011;13877;18.896;-99.222;2022-10-19T03:46:58;101.07;;;42.33;;
12412;SDS011;13877;18.896;-99.222;2022-10-19T03:49:26;82.90;;;40.80;;
12412;SDS011;13877;18.896;-99.222;2022-10-19T03:51:52;85.95;;;39.70;;
12412;SDS011;13877;18.896;-99.222;2022-10-19T03:54:19;86.57;;;39.67;;
12412;SDS011;13877;18.896;-99.222;2022-10-19T03:56:46;78.45;;;37.03;;
12412;SDS011;13877;18.896;-99.222;2022-10-19T03:59:13;77.90;;;39.30;;
12412;SDS011;13877;18.896;-99.222;2022-10-19T04:01:42;83.72;;;36.75;;
12412;SDS011;13877;18.896;-99.222;2022-10-19T04:04:12;79.90;;;38.17;;
12412;SDS011;13877;18.896;-99.222;2022-10-19T04:06:41;79.50;;;37.35;;
12412;SDS011;13877;18.896;-99.222;2022-10-19T04:09:13;79.47;;;37.25;;
12412;SDS011;13877;18.896;-99.222;2022-10-19T04:11:41;76.78;;;37.05;;
12412;SDS011;13877;18.896;-99.222;2022-10-19T04:14:09;78.05;;;35.80;;
12412;SDS011;13877;18.896;-99.222;2022-10-19T04:16:41;77.53;;;36.90;;
12412;SDS011;13877;18.896;-99.222;2022-10-19T04:19:07;68.70;;;36.22;;
12412;SDS011;13877;18.896;-99.222;2022-10-19T04:21:38;66.85;;;36.15;;
12412;SDS011;13877;18.896;-99.222;2022-10-19T04:24:07;69.78;;;35.10;;
12412;SDS011;13877;18.896;-99.222;2022-10-19T04:26:40;76.80;;;36.35;;
12412;SDS011;13877;18.896;-99.222;2022-10-19T04:29:12;84.97;;;37.42;;
12412;SDS011;13877;18.896;-99.222;2022-10-19T04:31:39;84.15;;;38.85;;
12412;SDS011;13877;18.896;-99.222;2022-10-19T04:34:07;82.07;;;38.85;;
12412;SDS011;13877;18.896;-99.222;2022-10-19T04:36:34;85.90;;;37.20;;
12412;SDS011;13877;18.896;-99.222;2022-10-19T04:39:02;84.68;;;38.35;;
12412;SDS011;13877;18.896;-99.222;2022-10-19T04:41:29;83.40;;;38.30;;
12412;SDS011;13877;18.896;-99.222;2022-10-19T04:43:59;109.03;;;43.50;;
12412;SDS011;13877;18.896;-99.222;2022-10-19T04:46:27;97.43;;;39.97;;
12412;SDS011;13877;18.896;-99.222;2022-10-19T04:48:55;85.10;;;38.50;;
12412;SDS011;13877;18.896;-99.222;2022-10-19T04:51:24;93.40;;;41.10;;
12412;SDS011;13877;18.896;-99.222;2022-10-19T04:53:51;99.53;;;41.22;;
12412;SDS011;13877;18.896;-99.222;2022-10-19T04:56:21;84.85;;;39.08;;
12412;SDS011;13877;18.896;-99.222;2022-10-19T04:58:53;86.40;;;38.55;;
12412;SDS011;13877;18.896;-99.222;2022-10-19T05:01:22;103.63;;;43.47;;
12412;SDS011;13877;18.896;-99.222;2022-10-19T05:03:54;101.32;;;43.00;;
12412;SDS011;13877;18.896;-99.222;2022-10-19T05:06:23;102.53;;;42.42;;
12412;SDS011;13877;18.896;-99.222;2022-10-19T05:08:50;91.05;;;43.50;;
12412;SDS011;13877;18.896;-99.222;2022-10-19T05:11:17;109.72;;;44.38;;
12412;SDS011;13877;18.896;-99.222;2022-10-19T05:13:44;108.75;;;47.17;;
12412;SDS011;13877;18.896;-99.222;2022-10-19T05:16:13;117.55;;;45.45;;
12412;SDS011;13877;18.896;-99.222;2022-10-19T05:18:45;95.18;;;40.85;;
12412;SDS011;13877;18.896;-99.222;2022-10-19T05:23:40;115.05;;;45.60;;
12412;SDS011;13877;18.896;-99.222;2022-10-19T05:26:09;100.03;;;44.35;;
12412;SDS011;13877;18.896;-99.222;2022-10-19T05:28:38;103.43;;;45.65;;
12412;SDS011;13877;18.896;-99.222;2022-10-19T05:31:12;100.32;;;45.05;;
12412;SDS011;13877;18.896;-99.222;2022-10-19T05:33:41;103.65;;;44.97;;
12412;SDS011;13877;18.896;-99.222;2022-10-19T05:36:18;102.55;;;46.80;;
12412;SDS011;13877;18.896;-99.222;2022-10-19T05:38:54;117.28;;;48.03;;
12412;SDS011;13877;18.896;-99.222;2022-10-19T05:41:22;106.63;;;47.05;;
12412;SDS011;13877;18.896;-99.222;2022-10-19T05:43:54;125.78;;;50.55;;
12412;SDS011;13877;18.896;-99.222;2022-10-19T05:46:22;125.05;;;49.17;;
12412;SDS011;13877;18.896;-99.222;2022-10-19T05:48:51;113.20;;;46.97;;
12412;SDS011;13877;18.896;-99.222;2022-10-19T05:51:19;118.85;;;48.42;;
12412;SDS011;13877;18.896;-99.222;2022-10-19T05:53:48;133.25;;;48.22;;
12412;SDS011;13877;18.896;-99.222;2022-10-19T05:56:19;105.43;;;46.20;;
12412;SDS011;13877;18.896;-99.222;2022-10-19T05:58:49;99.75;;;46.55;;
12412;SDS011;13877;18.896;-99.222;2022-10-19T06:01:17;109.20;;;46.72;;
12412;SDS011;13877;18.896;-99.222;2022-10-19T06:03:46;107.28;;;46.45;;
12412;SDS011;13877;18.896;-99.222;2022-10-19T06:06:15;98.05;;;44.38;;
12412;SDS011;13877;18.896;-99.222;2022-10-19T06:08:42;113.50;;;47.53;;
12412;SDS011;13877;18.896;-99.222;2022-10-19T06:11:14;122.43;;;47.83;;
12412;SDS011;13877;18.896;-99.222;2022-10-19T06:13:43;134.32;;;51.17;;
12412;SDS011;13877;18.896;-99.222;2022-10-19T06:16:12;133.38;;;52.38;;
12412;SDS011;13877;18.896;-99.222;2022-10-19T06:18:40;140.93;;;52.03;;
12412;SDS011;13877;18.896;-99.222;2022-10-19T06:21:09;153.65;;;56.78;;
12412;SDS011;13877;18.896;-99.222;2022-10-19T06:23:39;172.23;;;60.20;;
12412;SDS011;13877;18.896;-99.222;2022-10-19T06:26:07;174.95;;;61.95;;
12412;SDS011;13877;18.896;-99.222;2022-10-19T06:28:37;165.30;;;60.97;;
12412;SDS011;13877;18.896;-99.222;2022-10-19T06:31:05;179.63;;;66.63;;
12412;SDS011;13877;18.896;-99.222;2022-10-19T06:33:33;196.80;;;66.88;;
12412;SDS011;13877;18.896;-99.222;2022-10-19T06:38:33;185.80;;;64.70;;
12412;SDS011;13877;18.896;-99.222;2022-10-19T06:41:00;172.80;;;65.13;;
12412;SDS011;13877;18.896;-99.222;2022-10-19T06:43:28;179.18;;;66.68;;
12412;SDS011;13877;18.896;-99.222;2022-10-19T06:45:55;170.98;;;64.57;;
12412;SDS011;13877;18.896;-99.222;2022-10-19T06:48:24;157.10;;;61.60;;
12412;SDS011;13877;18.896;-99.222;2022-10-19T06:50:57;167.77;;;62.78;;
12412;SDS011;13877;18.896;-99.222;2022-10-19T06:53:25;142.65;;;59.33;;
12412;SDS011;13877;18.896;-99.222;2022-10-19T06:55:57;144.43;;;59.13;;
12412;SDS011;13877;18.896;-99.222;2022-10-19T06:58:25;143.30;;;59.33;;
12412;SDS011;13877;18.896;-99.222;2022-10-19T07:00:55;167.77;;;59.95;;
12412;SDS011;13877;18.896;-99.222;2022-10-19T07:03:24;142.80;;;57.33;;
12412;SDS011;13877;18.896;-99.222;2022-10-19T07:05:55;126.32;;;55.13;;
12412;SDS011;13877;18.896;-99.222;2022-10-19T07:08:24;139.77;;;53.05;;
12412;SDS011;13877;18.896;-99.222;2022-10-19T07:10:53;128.07;;;52.17;;
12412;SDS011;13877;18.896;-99.222;2022-10-19T07:13:22;120.57;;;51.22;;
12412;SDS011;13877;18.896;-99.222;2022-10-19T07:15:54;113.47;;;50.13;;
12412;SDS011;13877;18.896;-99.222;2022-10-19T07:18:37;115.70;;;52.00;;
12412;SDS011;13877;18.896;-99.222;2022-10-19T07:21:09;114.07;;;49.50;;
12412;SDS011;13877;18.896;-99.222;2022-10-19T07:23:37;109.88;;;48.40;;
12412;SDS011;13877;18.896;-99.222;2022-10-19T07:26:16;102.13;;;47.03;;
12412;SDS011;13877;18.896;-99.222;2022-10-19T07:28:47;115.00;;;48.63;;
12412;SDS011;13877;18.896;-99.222;2022-10-19T07:31:16;112.03;;;48.22;;
12412;SDS011;13877;18.896;-99.222;2022-10-19T07:33:45;113.80;;;49.03;;
12412;SDS011;13877;18.896;-99.222;2022-10-19T07:36:16;110.55;;;48.20;;
12412;SDS011;13877;18.896;-99.222;2022-10-19T07:38:43;108.95;;;47.58;;
12412;SDS011;13877;18.896;-99.222;2022-10-19T07:41:11;108.13;;;48.25;;
12412;SDS011;13877;18.896;-99.222;2022-10-19T07:43:39;104.03;;;46.50;;
12412;SDS011;13877;18.896;-99.222;2022-10-19T07:46:09;105.65;;;47.17;;
12412;SDS011;13877;18.896;-99.222;2022-10-19T07:48:38;119.80;;;48.58;;
12412;SDS011;13877;18.896;-99.222;2022-10-19T07:51:05;103.60;;;47.47;;
12412;SDS011;13877;18.896;-99.222;2022-10-19T07:53:33;105.68;;;46.75;;
12412;SDS011;13877;18.896;-99.222;2022-10-19T07:56:08;108.50;;;48.58;;
12412;SDS011;13877;18.896;-99.222;2022-10-19T07:58:37;108.50;;;48.70;;
12412;SDS011;13877;18.896;-99.222;2022-10-19T08:03:24;112.35;;;48.80;;
12412;SDS011;13877;18.896;-99.222;2022-10-19T08:05:51;113.57;;;49.63;;
12412;SDS011;13877;18.896;-99.222;2022-10-19T08:08:18;109.93;;;47.33;;
12412;SDS011;13877;18.896;-99.222;2022-10-19T08:10:45;112.40;;;48.42;;
12412;SDS011;13877;18.896;-99.222;2022-10-19T08:13:11;122.38;;;49.25;;
12412;SDS011;13877;18.896;-99.222;2022-10-19T08:15:38;124.45;;;50.70;;
12412;SDS011;13877;18.896;-99.222;2022-10-19T08:18:05;117.70;;;50.28;;
12412;SDS011;13877;18.896;-99.222;2022-10-19T08:20:32;119.07;;;49.08;;
12412;SDS011;13877;18.896;-99.222;2022-10-19T08:22:59;117.53;;;49.40;;
12412;SDS011;13877;18.896;-99.222;2022-10-19T08:25:27;126.13;;;50.25;;
12412;SDS011;13877;18.896;-99.222;2022-10-19T08:27:53;116.82;;;49.00;;
12412;SDS011;13877;18.896;-99.222;2022-10-19T08:30:21;127.47;;;49.33;;
12412;SDS011;13877;18.896;-99.222;2022-10-19T08:32:47;122.70;;;50.08;;
12412;SDS011;13877;18.896;-99.222;2022-10-19T08:35:14;110.18;;;48.70;;
12412;SDS011;13877;18.896;-99.222;2022-10-19T08:37:41;116.15;;;48.08;;
12412;SDS011;13877;18.896;-99.222;2022-10-19T08:40:27;112.97;;;49.13;;
12412;SDS011;13877;18.896;-99.222;2022-10-19T08:45:41;135.15;;;51.00;;
12412;SDS011;13877;18.896;-99.222;2022-10-19T08:50:41;117.75;;;48.70;;
12412;SDS011;13877;18.896;-99.222;2022-10-19T08:53:11;125.95;;;53.95;;
12412;SDS011;13877;18.896;-99.222;2022-10-19T08:58:51;183.07;;;57.47;;
12412;SDS011;13877;18.896;-99.222;2022-10-19T09:01:39;169.48;;;58.45;;
12412;SDS011;13877;18.896;-99.222;2022-10-19T09:04:37;241.68;;;63.10;;
12412;SDS011;13877;18.896;-99.222;2022-10-19T09:07:16;214.85;;;63.63;;
12412;SDS011;13877;18.896;-99.222;2022-10-19T09:15:40;356.70;;;71.95;;
12412;SDS011;13877;18.896;-99.222;2022-10-19T09:18:19;261.13;;;70.43;;
12412;SDS011;13877;18.896;-99.222;2022-10-19T09:20:49;207.05;;;68.15;;
12412;SDS011;13877;18.896;-99.222;2022-10-19T09:26:02;179.60;;;66.97;;
12412;SDS011;13877;18.896;-99.222;2022-10-19T09:28:42;189.48;;;67.95;;
12412;SDS011;13877;18.896;-99.222;2022-10-19T09:31:29;195.40;;;68.30;;
12412;SDS011;13877;18.896;-99.222;2022-10-19T09:34:02;196.95;;;69.85;;
12412;SDS011;13877;18.896;-99.222;2022-10-19T09:36:40;238.52;;;69.50;;
12412;SDS011;13877;18.896;-99.222;2022-10-19T09:39:12;228.57;;;70.93;;
12412;SDS011;13877;18.896;-99.222;2022-10-19T09:41:46;403.50;;;76.57;;
12412;SDS011;13877;18.896;-99.222;2022-10-19T09:44:19;208.05;;;71.07;;
12412;SDS011;13877;18.896;-99.222;2022-10-19T09:47:01;241.73;;;72.45;;
12412;SDS011;13877;18.896;-99.222;2022-10-19T09:49:47;251.70;;;69.10;;
12412;SDS011;13877;18.896;-99.222;2022-10-19T09:52:28;195.25;;;66.18;;
12412;SDS011;13877;18.896;-99.222;2022-10-19T09:55:01;211.77;;;67.43;;
12412;SDS011;13877;18.896;-99.222;2022-10-19T09:57:44;255.77;;;69.72;;
12412;SDS011;13877;18.896;-99.222;2022-10-19T10:00:17;174.98;;;61.70;;
12412;SDS011;13877;18.896;-99.222;2022-10-19T10:02:52;169.93;;;61.58;;
12412;SDS011;13877;18.896;-99.222;2022-10-19T10:05:34;158.68;;;57.13;;
12412;SDS011;13877;18.896;-99.222;2022-10-19T10:08:11;151.70;;;55.47;;
12412;SDS011;13877;18.896;-99.222;2022-10-19T10:10:46;139.68;;;52.35;;
12412;SDS011;13877;18.896;-99.222;2022-10-19T10:13:35;153.98;;;55.53;;
12412;SDS011;13877;18.896;-99.222;2022-10-19T10:16:13;156.48;;;56.90;;
12412;SDS011;13877;18.896;-99.222;2022-10-19T10:18:50;142.82;;;57.80;;
12412;SDS011;13877;18.896;-99.222;2022-10-19T10:21:21;163.73;;;58.08;;
12412;SDS011;13877;18.896;-99.222;2022-10-19T10:26:40;148.48;;;54.45;;
12412;SDS011;13877;18.896;-99.222;2022-10-19T10:31:51;144.25;;;56.80;;
12412;SDS011;13877;18.896;-99.222;2022-10-19T10:34:39;135.43;;;54.05;;
12412;SDS011;13877;18.896;-99.222;2022-10-19T10:37:22;163.15;;;57.47;;
12412;SDS011;13877;18.896;-99.222;2022-10-19T10:39:55;150.77;;;58.35;;
12412;SDS011;13877;18.896;-99.222;2022-10-19T10:42:44;142.07;;;55.55;;
12412;SDS011;13877;18.896;-99.222;2022-10-19T10:45:15;148.88;;;59.17;;
12412;SDS011;13877;18.896;-99.222;2022-10-19T10:50:55;167.55;;;61.15;;
12412;SDS011;13877;18.896;-99.222;2022-10-19T10:56:22;174.15;;;60.47;;
12412;SDS011;13877;18.896;-99.222;2022-10-19T11:01:57;180.50;;;64.75;;
12412;SDS011;13877;18.896;-99.222;2022-10-19T11:04:31;153.13;;;60.78;;
12412;SDS011;13877;18.896;-99.222;2022-10-19T11:07:06;174.15;;;63.33;;
12412;SDS011;13877;18.896;-99.222;2022-10-19T11:09:43;175.27;;;62.85;;
12412;SDS011;13877;18.896;-99.222;2022-10-19T11:12:36;161.45;;;63.80;;
12412;SDS011;13877;18.896;-99.222;2022-10-19T11:15:21;147.13;;;60.75;;
12412;SDS011;13877;18.896;-99.222;2022-10-19T11:21:35;164.25;;;64.10;;
12412;SDS011;13877;18.896;-99.222;2022-10-19T11:24:28;137.07;;;63.00;;
12412;SDS011;13877;18.896;-99.222;2022-10-19T11:27:19;153.38;;;64.63;;
12412;SDS011;13877;18.896;-99.222;2022-10-19T11:35:30;174.43;;;68.03;;
12412;SDS011;13877;18.896;-99.222;2022-10-19T11:38:23;160.65;;;66.80;;
12412;SDS011;13877;18.896;-99.222;2022-10-19T11:52:11;230.68;;;78.72;;
12412;SDS011;13877;18.896;-99.222;2022-10-19T11:57:31;243.95;;;77.07;;
12412;SDS011;13877;18.896;-99.222;2022-10-19T12:00:21;235.50;;;80.82;;
12412;SDS011;13877;18.896;-99.222;2022-10-19T12:13:50;184.25;;;72.10;;
12412;SDS011;13877;18.896;-99.222;2022-10-19T12:16:18;259.20;;;74.82;;
12412;SDS011;13877;18.896;-99.222;2022-10-19T12:18:47;180.10;;;68.65;;
12412;SDS011;13877;18.896;-99.222;2022-10-19T12:23:59;172.35;;;61.47;;
12412;SDS011;13877;18.896;-99.222;2022-10-19T12:26:29;163.50;;;61.63;;
12412;SDS011;13877;18.896;-99.222;2022-10-19T12:29:11;152.48;;;60.28;;
12412;SDS011;13877;18.896;-99.222;2022-10-19T12:31:51;158.38;;;63.22;;
12412;SDS011;13877;18.896;-99.222;2022-10-19T12:36:57;158.20;;;66.32;;
12412;SDS011;13877;18.896;-99.222;2022-10-19T12:45:31;142.93;;;63.20;;
12412;SDS011;13877;18.896;-99.222;2022-10-19T12:53:25;142.88;;;64.72;;
12412;SDS011;13877;18.896;-99.222;2022-10-19T12:58:55;157.95;;;63.60;;
12412;SDS011;13877;18.896;-99.222;2022-10-19T13:09:25;118.35;;;55.30;;
12412;SDS011;13877;18.896;-99.222;2022-10-19T13:17:06;109.75;;;52.58;;
12412;SDS011;13877;18.896;-99.222;2022-10-19T13:19:34;109.65;;;48.33;;
12412;SDS011;13877;18.896;-99.222;2022-10-19T13:27:48;102.20;;;47.22;;
12412;SDS011;13877;18.896;-99.222;2022-10-19T14:04:00;92.35;;;37.10;;
12412;SDS011;13877;18.896;-99.222;2022-10-19T14:10:05;87.57;;;37.83;;
12412;SDS011;13877;18.896;-99.222;2022-10-19T14:12:46;88.05;;;37.50;;
12412;SDS011;13877;18.896;-99.222;2022-10-19T14:15:27;93.30;;;39.10;;
12412;SDS011;13877;18.896;-99.222;2022-10-19T14:17:56;88.07;;;37.92;;
12412;SDS011;13877;18.896;-99.222;2022-10-19T14:20:28;88.35;;;40.50;;
12412;SDS011;13877;18.896;-99.222;2022-10-19T14:22:55;91.20;;;39.65;;
12412;SDS011;13877;18.896;-99.222;2022-10-19T14:25:24;84.90;;;38.63;;
12412;SDS011;13877;18.896;-99.222;2022-10-19T14:27:57;72.05;;;33.78;;
12412;SDS011;13877;18.896;-99.222;2022-10-19T14:30:28;66.80;;;29.88;;
12412;SDS011;13877;18.896;-99.222;2022-10-19T14:32:57;71.95;;;31.27;;
12412;SDS011;13877;18.896;-99.222;2022-10-19T14:35:26;60.60;;;29.88;;
12412;SDS011;13877;18.896;-99.222;2022-10-19T14:37:59;58.58;;;28.08;;
12412;SDS011;13877;18.896;-99.222;2022-10-19T14:40:27;57.25;;;28.75;;
12412;SDS011;13877;18.896;-99.222;2022-10-19T14:42:59;66.82;;;31.35;;
12412;SDS011;13877;18.896;-99.222;2022-10-19T14:45:27;60.60;;;29.05;;
12412;SDS011;13877;18.896;-99.222;2022-10-19T14:48:02;54.53;;;26.75;;
12412;SDS011;13877;18.896;-99.222;2022-10-19T14:53:00;70.60;;;30.25;;
12412;SDS011;13877;18.896;-99.222;2022-10-19T14:55:47;60.20;;;29.90;;
12412;SDS011;13877;18.896;-99.222;2022-10-19T14:58:17;56.65;;;29.40;;
12412;SDS011;13877;18.896;-99.222;2022-10-19T15:00:47;49.88;;;28.02;;
12412;SDS011;13877;18.896;-99.222;2022-10-19T15:03:27;54.90;;;25.55;;
12412;SDS011;13877;18.896;-99.222;2022-10-19T15:05:58;58.33;;;27.77;;
12412;SDS011;13877;18.896;-99.222;2022-10-19T15:08:36;43.97;;;24.83;;
12412;SDS011;13877;18.896;-99.222;2022-10-19T15:11:19;38.78;;;22.40;;
12412;SDS011;13877;18.896;-99.222;2022-10-19T15:13:54;39.35;;;23.17;;
12412;SDS011;13877;18.896;-99.222;2022-10-19T15:16:49;36.03;;;20.95;;
12412;SDS011;13877;18.896;-99.222;2022-10-19T15:19:29;28.98;;;17.48;;
12412;SDS011;13877;18.896;-99.222;2022-10-19T15:27:37;27.50;;;17.02;;
12412;SDS011;13877;18.896;-99.222;2022-10-19T15:33:12;37.15;;;21.85;;
12412;SDS011;13877;18.896;-99.222;2022-10-19T15:35:41;45.85;;;23.00;;
12412;SDS011;13877;18.896;-99.222;2022-10-19T15:40:40;40.70;;;23.40;;
12412;SDS011;13877;18.896;-99.222;2022-10-19T15:48:27;35.30;;;18.35;;
12412;SDS011;13877;18.896;-99.222;2022-10-19T15:53:55;32.33;;;18.08;;
12412;SDS011;13877;18.896;-99.222;2022-10-19T15:56:25;35.72;;;18.27;;
12412;SDS011;13877;18.896;-99.222;2022-10-19T15:58:55;30.38;;;19.50;;
12412;SDS011;13877;18.896;-99.222;2022-10-19T16:01:25;31.38;;;17.83;;
12412;SDS011;13877;18.896;-99.222;2022-10-19T16:03:58;26.90;;;16.77;;
12412;SDS011;13877;18.896;-99.222;2022-10-19T16:06:27;29.48;;;16.88;;
12412;SDS011;13877;18.896;-99.222;2022-10-19T16:08:56;29.85;;;16.75;;
12412;SDS011;13877;18.896;-99.222;2022-10-19T16:11:23;29.58;;;15.73;;
12412;SDS011;13877;18.896;-99.222;2022-10-19T16:13:52;25.65;;;14.38;;
12412;SDS011;13877;18.896;-99.222;2022-10-19T16:18:58;25.50;;;14.50;;
12412;SDS011;13877;18.896;-99.222;2022-10-19T16:21:30;35.60;;;14.95;;
12412;SDS011;13877;18.896;-99.222;2022-10-19T16:24:00;25.27;;;15.82;;
12412;SDS011;13877;18.896;-99.222;2022-10-19T16:26:27;28.55;;;16.15;;
12412;SDS011;13877;18.896;-99.222;2022-10-19T16:28:56;26.83;;;15.40;;
12412;SDS011;13877;18.896;-99.222;2022-10-19T16:31:24;28.52;;;14.38;;
12412;SDS011;13877;18.896;-99.222;2022-10-19T16:33:51;22.92;;;12.52;;
12412;SDS011;13877;18.896;-99.222;2022-10-19T16:36:18;23.02;;;13.40;;
12412;SDS011;13877;18.896;-99.222;2022-10-19T16:38:45;26.98;;;12.65;;
12412;SDS011;13877;18.896;-99.222;2022-10-19T16:41:12;23.98;;;12.32;;
12412;SDS011;13877;18.896;-99.222;2022-10-19T16:43:40;17.45;;;12.02;;
12412;SDS011;13877;18.896;-99.222;2022-10-19T16:46:07;28.90;;;10.70;;
12412;SDS011;13877;18.896;-99.222;2022-10-19T16:48:33;25.30;;;14.57;;
12412;SDS011;13877;18.896;-99.222;2022-10-19T16:53:37;17.92;;;10.80;;
12412;SDS011;13877;18.896;-99.222;2022-10-19T16:56:04;17.98;;;10.52;;
12412;SDS011;13877;18.896;-99.222;2022-10-19T16:58:38;16.08;;;10.25;;
12412;SDS011;13877;18.896;-99.222;2022-10-19T17:01:24;19.88;;;10.35;;
12412;SDS011;13877;18.896;-99.222;2022-10-19T17:03:52;20.65;;;10.95;;
12412;SDS011;13877;18.896;-99.222;2022-10-19T17:06:21;11.13;;;8.27;;
12412;SDS011;13877;18.896;-99.222;2022-10-19T17:08:50;21.02;;;9.77;;
12412;SDS011;13877;18.896;-99.222;2022-10-19T17:11:19;13.40;;;8.77;;
12412;SDS011;13877;18.896;-99.222;2022-10-19T17:13:50;15.82;;;8.65;;
12412;SDS011;13877;18.896;-99.222;2022-10-19T17:16:19;11.65;;;6.68;;
12412;SDS011;13877;18.896;-99.222;2022-10-19T17:18:46;14.07;;;8.07;;
12412;SDS011;13877;18.896;-99.222;2022-10-19T17:21:16;13.43;;;8.85;;
12412;SDS011;13877;18.896;-99.222;2022-10-19T17:23:44;15.77;;;10.23;;
12412;SDS011;13877;18.896;-99.222;2022-10-19T17:26:11;15.77;;;10.18;;
12412;SDS011;13877;18.896;-99.222;2022-10-19T17:28:39;16.58;;;9.10;;
12412;SDS011;13877;18.896;-99.222;2022-10-19T17:31:08;17.63;;;8.70;;
12412;SDS011;13877;18.896;-99.222;2022-10-19T17:33:40;10.82;;;6.75;;
12412;SDS011;13877;18.896;-99.222;2022-10-19T17:36:09;10.80;;;6.65;;
12412;SDS011;13877;18.896;-99.222;2022-10-19T17:38:40;13.32;;;7.82;;
12412;SDS011;13877;18.896;-99.222;2022-10-19T17:41:08;11.02;;;7.50;;
12412;SDS011;13877;18.896;-99.222;2022-10-19T17:43:41;13.32;;;7.30;;